Urgench, Uzbekistan
Current Conditions -  °F | °C
As of 9:30 PM on Sunday 21 Dec 2014 (Local Time) from UTNU Reporting Station
Clear Clear  
Wind Chill: 25°   Ceiling: Unl
Heat Index: 25°   Visibility: 6mi
Dew Point: 21°   Wind: 3mph
Humidity: 86%   Direction: 310°NW
Pressure: 30.15"   Gusts: NA
Location:  41.55°N, 60.62°E
Report Text: UTNU 211630Z 31003KT 3600BR NSC M04/M06 Q1021 R13/CLRD70 NOSIG
Loading
Personal Weather Stations






























Interactive Weather Map New forecast layout! Learn more

10-Day Weather Forecast

Advertisements
Track Severe Weather on mobile